Time;durP1;ratioP1;P1;durP2;ratioP2;P2;SDS_P1;SDS_P2;PMS_P1;PMS_P2;Temp;Humidity;BMP_temperature;BMP_pressure;BME280_temperature;BME280_humidity;BME280_pressure;Samples;Min_cycle;Max_cycle;Signal;HPM_P1;HPM_P2
2022/04/20 00:01:13;;;;;;;2.97;1.33;;;22.80;40.10;;;;;;5007443;28;20096;-45
2022/04/20 00:03:39;;;;;;;2.47;1.20;;;22.80;40.10;;;;;;5007616;28;20041;-45
2022/04/20 00:06:05;;;;;;;2.45;1.30;;;22.80;40.10;;;;;;5007180;28;20044;-44
2022/04/20 00:08:32;;;;;;;2.35;1.30;;;22.80;40.00;;;;;;4989857;28;20121;-44
2022/04/20 00:10:59;;;;;;;2.10;1.30;;;22.70;40.00;;;;;;5007344;28;20030;-44
2022/04/20 00:13:24;;;;;;;2.78;1.35;;;22.80;40.00;;;;;;5007225;28;20037;-45
2022/04/20 00:15:50;;;;;;;2.90;1.58;;;22.70;40.00;;;;;;5007039;28;20777;-45
2022/04/20 00:18:16;;;;;;;2.15;1.13;;;22.70;39.90;;;;;;5007634;28;20060;-44
2022/04/20 00:20:41;;;;;;;2.58;1.40;;;22.80;40.00;;;;;;4989341;28;20025;-44
2022/04/20 00:23:07;;;;;;;2.53;1.20;;;22.70;40.00;;;;;;5006490;28;20083;-46
2022/04/20 00:25:33;;;;;;;2.90;1.60;;;22.70;39.90;;;;;;5007308;28;20036;-44
2022/04/20 00:27:59;;;;;;;2.42;1.35;;;22.70;39.90;;;;;;5003016;28;20117;-44
2022/04/20 00:30:25;;;;;;;1.92;1.10;;;22.70;40.00;;;;;;5005316;28;20029;-46
2022/04/20 00:32:50;;;;;;;2.58;1.38;;;22.70;40.00;;;;;;5006378;28;20042;-44
2022/04/20 00:35:16;;;;;;;1.63;1.00;;;22.70;40.00;;;;;;5007004;28;20088;-45
2022/04/20 00:37:43;;;;;;;2.90;1.33;;;22.70;40.00;;;;;;5006767;28;20029;-45
2022/04/20 00:40:10;;;;;;;2.15;1.15;;;22.70;40.10;;;;;;5007097;28;20536;-45
2022/04/20 00:42:40;;;;;;;2.30;1.23;;;22.70;40.10;;;;;;5006667;28;20361;-44
2022/04/20 00:45:11;;;;;;;1.65;1.02;;;22.70;40.10;;;;;;5006879;28;20045;-46
2022/04/20 00:47:44;;;;;;;2.35;1.30;;;22.60;40.00;;;;;;5006416;28;20038;-45
2022/04/20 00:50:12;;;;;;;2.25;1.10;;;22.60;40.00;;;;;;5006262;28;20061;-44
2022/04/20 00:52:38;;;;;;;2.88;1.40;;;22.60;40.00;;;;;;5006517;28;20033;-43
2022/04/20 00:55:05;;;;;;;2.90;1.30;;;22.60;40.00;;;;;;5007177;28;20025;-45
2022/04/20 00:57:31;;;;;;;2.42;1.10;;;22.60;40.00;;;;;;5006761;28;20109;-45
2022/04/20 01:00:00;;;;;;;2.20;1.17;;;22.60;39.90;;;;;;5006095;28;20030;-45
2022/04/20 01:02:27;;;;;;;1.90;1.00;;;22.60;40.00;;;;;;5006196;28;20026;-45
2022/04/20 01:04:53;;;;;;;2.40;1.38;;;22.60;39.90;;;;;;5006485;28;20105;-45
2022/04/20 01:07:19;;;;;;;2.00;0.90;;;22.60;39.90;;;;;;5006267;28;20105;-46
2022/04/20 01:09:45;;;;;;;1.95;1.05;;;22.60;40.00;;;;;;5006782;28;20113;-44
2022/04/20 01:12:16;;;;;;;2.83;1.10;;;22.60;39.90;;;;;;5006593;28;20034;-45
2022/04/20 01:14:42;;;;;;;2.00;1.15;;;22.60;40.00;;;;;;5005880;28;20066;-45
2022/04/20 01:17:07;;;;;;;2.40;0.95;;;22.50;39.90;;;;;;5006345;28;20092;-45
2022/04/20 01:19:40;;;;;;;2.55;1.30;;;22.50;40.00;;;;;;5006431;28;20111;-45
2022/04/20 01:22:07;;;;;;;2.60;1.48;;;22.60;39.90;;;;;;5006435;28;20042;-45
2022/04/20 01:24:35;;;;;;;2.30;1.13;;;22.50;40.00;;;;;;5006039;28;20104;-45
2022/04/20 01:27:02;;;;;;;2.10;0.90;;;22.50;39.90;;;;;;5005836;28;20026;-45
2022/04/20 01:29:28;;;;;;;1.67;0.88;;;22.50;40.00;;;;;;5000939;28;20119;-46
2022/04/20 01:31:55;;;;;;;1.90;1.00;;;22.50;40.00;;;;;;5005117;28;20034;-44
2022/04/20 01:34:21;;;;;;;2.30;0.85;;;22.50;40.00;;;;;;5006348;28;20478;-44
2022/04/20 01:36:47;;;;;;;2.65;1.17;;;22.50;40.00;;;;;;5006002;28;20049;-44
2022/04/20 01:39:13;;;;;;;2.75;1.20;;;22.40;39.90;;;;;;5006032;28;20517;-44
2022/04/20 01:41:39;;;;;;;2.10;1.45;;;22.40;39.90;;;;;;4987725;28;20105;-45
2022/04/20 01:44:05;;;;;;;1.58;0.90;;;22.40;39.80;;;;;;5005401;28;20167;-45
2022/04/20 01:46:31;;;;;;;1.92;1.00;;;22.40;39.90;;;;;;5005566;28;20026;-45
2022/04/20 01:48:57;;;;;;;2.15;1.15;;;22.40;39.80;;;;;;5005445;28;20041;-44
2022/04/20 01:54:07;;;;;;;2.30;0.98;;;22.40;39.80;;;;;;4987636;28;20592;-46
2022/04/20 01:56:33;;;;;;;2.03;1.08;;;22.40;39.70;;;;;;5004940;28;20695;-43
2022/04/20 01:58:59;;;;;;;2.22;1.00;;;22.40;39.70;;;;;;5005290;28;20033;-44
2022/04/20 02:04:09;;;;;;;2.05;0.90;;;22.40;39.70;;;;;;5005549;28;20065;-43
2022/04/20 02:06:35;;;;;;;1.60;0.80;;;22.40;39.70;;;;;;4987884;28;20058;-45
2022/04/20 02:09:00;;;;;;;1.65;0.93;;;22.40;39.70;;;;;;5005430;28;20060;-43
2022/04/20 02:11:26;;;;;;;3.42;1.00;;;22.40;40.30;;;;;;5005145;28;20045;-45
2022/04/20 02:13:52;;;;;;;1.85;0.95;;;22.40;39.70;;;;;;5005309;28;20036;-44
2022/04/20 02:16:18;;;;;;;1.83;0.80;;;22.40;39.60;;;;;;5005273;28;20034;-45
2022/04/20 02:18:43;;;;;;;1.67;0.90;;;22.40;39.70;;;;;;5005112;28;20030;-44
2022/04/20 02:21:09;;;;;;;1.52;0.90;;;22.40;39.60;;;;;;5004402;28;20018;-44
2022/04/20 02:23:34;;;;;;;2.13;1.13;;;22.40;39.70;;;;;;5005091;28;20029;-45
2022/04/20 02:26:00;;;;;;;1.63;0.90;;;22.40;39.60;;;;;;5005152;28;20311;-43
2022/04/20 02:28:26;;;;;;;1.65;0.80;;;22.40;39.60;;;;;;5004947;28;20848;-44
2022/04/20 02:30:51;;;;;;;2.33;1.00;;;22.40;39.60;;;;;;4997545;28;20068;-43
2022/04/20 02:33:17;;;;;;;1.95;0.98;;;22.40;39.60;;;;;;5005260;28;20512;-45
2022/04/20 02:35:43;;;;;;;2.22;0.85;;;22.40;39.60;;;;;;5004706;28;20362;-46
2022/04/20 02:38:11;;;;;;;2.28;1.10;;;22.40;40.30;;;;;;5004859;28;20497;-46
2022/04/20 02:40:38;;;;;;;1.60;0.80;;;22.40;39.50;;;;;;5004704;28;20156;-44
2022/04/20 02:43:04;;;;;;;2.22;0.85;;;22.40;39.50;;;;;;5004597;28;20021;-44
2022/04/20 02:45:30;;;;;;;1.90;1.00;;;22.40;39.50;;;;;;5005259;28;20060;-45
2022/04/20 02:47:56;;;;;;;1.55;0.77;;;22.40;39.50;;;;;;5008998;28;20079;-45
2022/04/20 02:50:21;;;;;;;1.95;1.15;;;22.40;39.50;;;;;;5008078;28;20026;-45
2022/04/20 02:52:47;;;;;;;1.40;0.80;;;22.40;39.50;;;;;;5008331;28;20033;-44
2022/04/20 02:55:13;;;;;;;1.50;0.88;;;22.30;39.50;;;;;;5008601;28;20026;-44
2022/04/20 02:57:38;;;;;;;1.73;0.98;;;22.40;39.50;;;;;;5008760;28;20044;-45
2022/04/20 03:00:05;;;;;;;2.10;0.90;;;22.30;39.50;;;;;;4990996;28;20029;-44
2022/04/20 03:02:31;;;;;;;1.45;0.80;;;22.30;39.50;;;;;;5009105;28;20035;-47
2022/04/20 03:04:57;;;;;;;1.88;0.80;;;22.30;39.40;;;;;;5008867;28;20022;-44
2022/04/20 03:07:23;;;;;;;1.23;0.77;;;22.30;39.40;;;;;;5008398;28;20029;-45
2022/04/20 03:09:49;;;;;;;1.45;0.80;;;22.30;39.40;;;;;;5008706;28;20045;-44
2022/04/20 03:12:15;;;;;;;1.73;0.90;;;22.30;39.40;;;;;;5008317;28;20030;-44
2022/04/20 03:14:40;;;;;;;1.58;0.85;;;22.30;39.40;;;;;;4990531;28;20033;-44
2022/04/20 03:17:06;;;;;;;1.48;0.70;;;22.30;39.40;;;;;;5008691;28;20041;-45
2022/04/20 03:19:32;;;;;;;1.63;0.77;;;22.30;39.40;;;;;;5008766;28;20052;-45
2022/04/20 03:21:58;;;;;;;2.10;1.00;;;22.30;39.30;;;;;;5008485;28;20029;-46
2022/04/20 03:24:24;;;;;;;1.65;0.93;;;22.30;39.40;;;;;;5008438;28;20030;-45
2022/04/20 03:26:50;;;;;;;1.60;0.90;;;22.30;39.40;;;;;;5008662;28;20029;-44
2022/04/20 03:29:15;;;;;;;1.63;0.93;;;22.30;39.30;;;;;;5008050;28;20137;-44
2022/04/20 03:31:41;;;;;;;1.83;0.77;;;22.20;39.20;;;;;;5005600;28;20068;-45
2022/04/20 03:34:07;;;;;;;1.65;0.93;;;22.20;39.20;;;;;;5008153;28;20031;-45
2022/04/20 03:36:34;;;;;;;1.55;0.73;;;22.30;39.30;;;;;;5006588;28;20026;-44
2022/04/20 03:39:01;;;;;;;1.92;0.90;;;22.20;39.20;;;;;;5005843;28;20095;-43
2022/04/20 03:41:26;;;;;;;1.75;0.75;;;22.20;39.10;;;;;;5006932;28;20515;-45
2022/04/20 03:43:52;;;;;;;1.77;0.90;;;22.20;39.20;;;;;;5007270;28;20113;-44
2022/04/20 03:46:18;;;;;;;1.80;0.90;;;22.20;39.10;;;;;;5006716;28;20038;-44
2022/04/20 03:48:45;;;;;;;1.45;0.70;;;22.20;39.00;;;;;;5005870;28;20024;-44
2022/04/20 03:51:11;;;;;;;1.73;0.82;;;22.20;39.10;;;;;;5006628;28;20026;-46
2022/04/20 03:53:37;;;;;;;1.67;0.85;;;22.20;39.00;;;;;;5007030;28;20030;-45
2022/04/20 03:56:03;;;;;;;1.67;0.90;;;22.20;39.00;;;;;;5006483;28;20026;-45
2022/04/20 03:58:29;;;;;;;3.65;1.25;;;22.20;39.00;;;;;;5005043;28;20120;-44
2022/04/20 04:00:55;;;;;;;30.85;10.25;;;22.20;39.00;;;;;;5005730;28;20029;-46
2022/04/20 04:03:21;;;;;;;30.80;10.85;;;22.20;39.90;;;;;;5006614;28;20025;-45
2022/04/20 04:05:46;;;;;;;22.48;8.88;;;22.20;40.10;;;;;;5006424;28;20038;-44
2022/04/20 04:08:12;;;;;;;26.23;9.43;;;22.20;40.00;;;;;;5006265;28;20026;-46
2022/04/20 04:10:38;;;;;;;19.20;7.68;;;22.20;39.90;;;;;;5006982;28;20704;-44
2022/04/20 04:13:04;;;;;;;19.35;7.43;;;22.20;39.80;;;;;;5007510;28;20038;-43
2022/04/20 04:15:29;;;;;;;18.50;7.28;;;22.20;39.70;;;;;;5007055;28;20042;-45
2022/04/20 04:17:58;;;;;;;15.40;6.28;;;22.20;39.60;;;;;;5007183;28;20100;-44
2022/04/20 04:20:26;;;;;;;15.88;5.88;;;22.20;39.40;;;;;;5007035;28;20026;-45
2022/04/20 04:22:52;;;;;;;16.40;6.10;;;22.20;39.40;;;;;;5007362;28;20029;-45
2022/04/20 04:25:18;;;;;;;16.02;6.32;;;22.20;39.40;;;;;;5006475;28;20026;-45
2022/04/20 04:27:44;;;;;;;14.93;5.15;;;22.20;39.30;;;;;;5007612;28;20479;-45
2022/04/20 04:30:10;;;;;;;10.98;4.78;;;22.20;39.30;;;;;;5006604;28;20097;-45
2022/04/20 04:32:36;;;;;;;10.88;5.03;;;22.20;39.30;;;;;;4987330;28;20087;-45
2022/04/20 04:35:02;;;;;;;10.75;4.63;;;22.20;39.30;;;;;;5006956;28;20037;-44
2022/04/20 04:37:27;;;;;;;10.80;4.60;;;22.20;39.30;;;;;;5006421;28;20109;-44
2022/04/20 04:39:53;;;;;;;8.85;4.07;;;22.20;39.30;;;;;;5006739;28;20410;-44
2022/04/20 04:42:19;;;;;;;10.05;4.63;;;22.20;39.30;;;;;;5006595;28;20026;-44
2022/04/20 04:44:45;;;;;;;11.27;4.40;;;22.20;39.40;;;;;;5006304;28;20460;-45
2022/04/20 04:49:55;;;;;;;8.82;3.65;;;22.30;39.40;;;;;;5006450;28;20115;-44
2022/04/20 04:52:21;;;;;;;8.55;3.72;;;22.30;39.40;;;;;;5006088;28;20040;-45
2022/04/20 04:54:47;;;;;;;6.72;3.22;;;22.40;39.40;;;;;;5006248;28;20516;-44
2022/04/20 04:57:12;;;;;;;7.10;3.17;;;22.40;39.30;;;;;;5006003;28;20045;-45
2022/04/20 04:59:39;;;;;;;6.57;3.08;;;22.50;39.40;;;;;;5006169;28;20441;-45
2022/04/20 05:02:06;;;;;;;6.65;3.17;;;22.60;39.90;;;;;;5005875;28;20029;-43
2022/04/20 05:04:33;;;;;;;6.97;2.65;;;22.70;39.30;;;;;;5006032;28;20033;-44
2022/04/20 05:06:59;;;;;;;7.97;3.30;;;22.70;39.10;;;;;;5006184;28;20496;-45
2022/04/20 05:09:25;;;;;;;6.85;2.97;;;22.80;38.90;;;;;;5005230;28;20486;-48
2022/04/20 05:11:51;;;;;;;9.77;3.03;;;22.90;38.90;;;;;;5004886;28;20037;-45
2022/04/20 05:14:17;;;;;;;5.60;2.72;;;23.00;38.80;;;;;;4987765;28;20045;-45
2022/04/20 05:16:43;;;;;;;5.07;2.67;;;23.00;38.70;;;;;;5004972;28;20034;-46
2022/04/20 05:19:10;;;;;;;8.13;2.90;;;23.00;38.60;;;;;;5005194;28;20034;-44
2022/04/20 05:21:36;;;;;;;5.30;2.63;;;23.10;38.50;;;;;;5005336;28;20025;-43
2022/04/20 05:24:01;;;;;;;6.25;2.28;;;23.20;38.50;;;;;;5001643;28;20517;-46
2022/04/20 05:26:27;;;;;;;5.95;2.50;;;23.20;38.70;;;;;;4988366;28;20116;-44
2022/04/20 05:28:53;;;;;;;4.32;2.10;;;23.20;38.80;;;;;;4986098;28;20479;-45
2022/04/20 05:31:20;;;;;;;5.28;2.20;;;23.30;38.90;;;;;;5001082;28;20391;-46
2022/04/20 05:33:45;;;;;;;4.32;1.77;;;23.30;38.80;;;;;;5005690;28;20033;-44
2022/04/20 05:36:12;;;;;;;4.47;2.17;;;23.40;38.70;;;;;;5005736;28;20548;-45
2022/04/20 05:41:41;;;;;;;3.80;1.90;;;23.50;38.70;;;;;;5005046;28;20029;-46
2022/04/20 05:44:11;;;;;;;4.22;1.70;;;23.50;38.60;;;;;;5005558;28;20548;-45
2022/04/20 05:46:37;;;;;;;6.38;2.28;;;23.60;38.30;;;;;;5005041;28;20045;-46
2022/04/20 05:49:03;;;;;;;4.78;1.92;;;23.60;38.30;;;;;;5005989;28;20025;-46
2022/04/20 05:51:29;;;;;;;4.65;1.92;;;23.70;38.50;;;;;;5004811;28;20033;-46
2022/04/20 05:53:55;;;;;;;3.72;1.83;;;23.70;38.40;;;;;;4988061;28;20030;-44
2022/04/20 05:56:21;;;;;;;3.28;1.45;;;23.70;38.40;;;;;;5005840;28;20037;-45
2022/04/20 05:58:50;;;;;;;5.28;1.92;;;23.70;38.50;;;;;;4987795;28;20065;-46
2022/04/20 06:01:16;;;;;;;4.20;1.90;;;23.70;38.60;;;;;;5005192;28;20445;-46
2022/04/20 06:03:42;;;;;;;3.53;1.65;;;23.70;38.90;;;;;;5005280;28;20105;-45
2022/04/20 06:06:08;;;;;;;4.40;2.20;;;23.70;39.00;;;;;;5005372;28;20129;-47
2022/04/20 06:08:34;;;;;;;3.83;1.92;;;23.70;39.20;;;;;;5004999;28;20113;-46
2022/04/20 06:11:00;;;;;;;4.88;2.15;;;23.70;39.20;;;;;;5004784;28;20474;-45
2022/04/20 06:13:28;;;;;;;3.35;1.67;;;23.70;38.80;;;;;;5004245;28;20504;-46
2022/04/20 06:15:54;;;;;;;3.67;1.70;;;23.70;38.50;;;;;;5003436;28;20038;-44
2022/04/20 06:18:20;;;;;;;3.92;1.50;;;23.80;38.30;;;;;;5004209;28;20075;-46
2022/04/20 06:20:46;;;;;;;4.07;1.70;;;23.80;38.10;;;;;;5002968;28;20037;-45
2022/04/20 06:23:12;;;;;;;3.45;1.80;;;23.70;38.10;;;;;;5004276;28;20014;-45
2022/04/20 06:25:38;;;;;;;3.95;1.75;;;23.80;37.80;;;;;;5003828;28;20060;-45
2022/04/20 06:28:04;;;;;;;4.60;1.80;;;23.80;37.80;;;;;;5004324;28;20041;-43
2022/04/20 06:30:30;;;;;;;3.22;1.58;;;23.80;37.60;;;;;;5003528;28;20490;-44
2022/04/20 06:32:56;;;;;;;4.38;2.20;;;23.70;37.70;;;;;;4984792;28;20296;-42
2022/04/20 06:35:21;;;;;;;3.78;1.65;;;23.70;37.70;;;;;;5003657;28;20033;-45
2022/04/20 06:37:48;;;;;;;2.90;1.60;;;23.70;37.60;;;;;;5004441;28;20567;-44
2022/04/20 06:40:15;;;;;;;3.55;1.77;;;23.80;37.50;;;;;;5004715;28;20099;-44
2022/04/20 06:42:41;;;;;;;5.00;1.88;;;23.70;37.50;;;;;;5004864;28;20079;-45
2022/04/20 06:45:07;;;;;;;5.50;1.98;;;23.70;37.50;;;;;;5005063;28;20033;-44
2022/04/20 06:47:34;;;;;;;3.42;1.80;;;23.70;37.60;;;;;;5004533;28;20509;-45
2022/04/20 06:50:00;;;;;;;4.45;1.92;;;23.70;37.50;;;;;;5004425;28;20125;-45
2022/04/20 07:00:39;;;;;;;3.50;1.65;;;23.60;37.20;;;;;;5004195;28;20228;-44
2022/04/20 07:03:08;;;;;;;3.28;1.65;;;23.60;37.30;;;;;;5004639;28;20114;-44
2022/04/20 07:05:35;;;;;;;4.22;1.77;;;23.60;37.30;;;;;;5004533;28;20055;-45
2022/04/20 07:08:01;;;;;;;3.20;1.50;;;23.60;37.30;;;;;;5004633;28;20092;-44
2022/04/20 07:10:28;;;;;;;3.60;1.98;;;23.50;37.30;;;;;;5004332;28;20034;-45
2022/04/20 07:12:53;;;;;;;2.75;1.30;;;23.60;37.40;;;;;;5004118;28;20044;-45
2022/04/20 07:15:19;;;;;;;3.25;1.42;;;23.50;37.40;;;;;;5004918;28;20101;-43
2022/04/20 07:17:45;;;;;;;3.08;1.55;;;23.50;37.40;;;;;;4986647;28;20030;-45
2022/04/20 07:20:17;;;;;;;3.00;1.38;;;23.50;37.40;;;;;;5004310;28;20085;-45
2022/04/20 07:22:50;;;;;;;2.58;1.42;;;23.50;37.40;;;;;;5004473;28;20084;-45
2022/04/20 07:25:16;;;;;;;;;;;23.50;38.00;;;;;;5004846;28;20018;-44
2022/04/20 07:27:42;;;;;;;2.28;1.00;;;23.50;37.40;;;;;;5004292;28;19943;-45
2022/04/20 07:30:08;;;;;;;2.67;1.38;;;23.50;37.20;;;;;;5003645;28;20118;-46
2022/04/20 07:32:34;;;;;;;3.00;1.05;;;23.50;37.30;;;;;;5006439;28;20033;-45
2022/04/20 07:35:00;;;;;;;3.38;1.70;;;23.50;37.30;;;;;;4986260;28;20030;-45
2022/04/20 07:37:25;;;;;;;2.65;1.30;;;23.40;37.10;;;;;;4988197;28;20030;-45
2022/04/20 07:39:51;;;;;;;2.83;1.77;;;23.40;37.20;;;;;;4987531;28;20482;-44
2022/04/20 07:42:17;;;;;;;2.97;1.48;;;23.40;37.20;;;;;;4988511;28;20022;-44
2022/04/20 07:44:43;;;;;;;3.08;1.45;;;23.40;37.30;;;;;;4988406;28;20488;-45
2022/04/20 07:47:09;;;;;;;3.58;1.40;;;23.40;36.80;;;;;;5007841;28;20104;-45
2022/04/20 07:52:19;;;;;;;2.90;1.58;;;23.40;37.20;;;;;;5007739;28;20101;-46
2022/04/20 07:54:45;;;;;;;2.85;1.60;;;23.40;37.30;;;;;;5007322;28;20474;-45
2022/04/20 07:57:15;;;;;;;2.33;1.30;;;23.40;37.20;;;;;;5007658;28;20042;-45
2022/04/20 07:59:42;;;;;;;2.78;1.50;;;23.50;37.30;;;;;;5007378;28;20693;-44
2022/04/20 08:02:08;;;;;;;5.15;1.45;;;23.50;37.20;;;;;;4987733;28;20478;-43
2022/04/20 08:04:33;;;;;;;3.88;1.48;;;23.50;37.20;;;;;;4988098;28;20023;-44
2022/04/20 08:06:59;;;;;;;2.35;1.20;;;23.50;37.10;;;;;;4987842;28;20034;-44
2022/04/20 08:09:25;;;;;;;2.53;1.23;;;23.50;37.10;;;;;;4988143;28;20057;-44
2022/04/20 08:11:51;;;;;;;2.80;1.35;;;23.50;37.20;;;;;;4987784;28;20077;-45
2022/04/20 08:14:17;;;;;;;2.30;1.00;;;23.50;37.10;;;;;;4987460;28;20046;-44
2022/04/20 08:16:44;;;;;;;3.05;1.55;;;23.60;37.10;;;;;;5003359;28;20038;-45
2022/04/20 08:19:10;;;;;;;2.20;1.30;;;23.60;37.70;;;;;;5007382;28;20389;-44
2022/04/20 08:21:36;;;;;;;2.85;1.40;;;23.50;37.70;;;;;;5006532;28;20022;-44
2022/04/20 08:24:02;;;;;;;2.42;1.30;;;23.60;37.00;;;;;;5007362;28;20099;-44
2022/04/20 08:26:28;;;;;;;2.95;1.58;;;23.60;37.00;;;;;;5007138;28;20034;-45
2022/04/20 08:28:54;;;;;;;1.95;1.20;;;23.60;36.90;;;;;;5007517;28;20076;-44
2022/04/20 08:31:20;;;;;;;2.22;1.00;;;23.60;37.00;;;;;;5006726;28;20022;-46
2022/04/20 08:33:46;;;;;;;2.33;1.23;;;23.60;37.00;;;;;;5006908;28;20045;-45
2022/04/20 08:36:12;;;;;;;3.15;1.40;;;23.60;37.00;;;;;;5000934;28;20034;-45
2022/04/20 08:38:38;;;;;;;3.33;1.40;;;23.60;37.00;;;;;;5006650;28;20679;-45
2022/04/20 08:41:05;;;;;;;3.13;1.58;;;23.60;37.00;;;;;;5006680;28;20121;-44
2022/04/20 08:43:32;;;;;;;2.67;1.33;;;23.60;36.90;;;;;;5005865;28;20056;-45
2022/04/20 08:46:01;;;;;;;2.40;1.25;;;23.60;36.90;;;;;;5006540;28;20487;-45
2022/04/20 08:48:28;;;;;;;2.63;1.40;;;23.60;37.50;;;;;;5006332;28;20346;-46
2022/04/20 08:50:54;;;;;;;2.35;1.30;;;23.60;37.00;;;;;;5006225;28;20030;-46
2022/04/20 08:53:21;;;;;;;2.50;1.20;;;23.60;36.90;;;;;;5006663;28;20044;-45
2022/04/20 08:55:47;;;;;;;2.30;1.20;;;23.60;36.90;;;;;;5006587;28;20290;-44
2022/04/20 08:58:14;;;;;;;2.58;1.30;;;23.60;36.90;;;;;;5006866;28;20030;-44
2022/04/20 09:00:40;;;;;;;2.05;1.25;;;23.60;37.00;;;;;;5005780;28;20033;-45
2022/04/20 09:03:06;;;;;;;2.97;1.50;;;23.60;36.90;;;;;;5006269;28;20205;-46
2022/04/20 09:05:34;;;;;;;2.88;1.30;;;23.60;36.90;;;;;;4988757;28;20049;-45
2022/04/20 09:08:08;;;;;;;1.83;1.10;;;23.50;36.90;;;;;;5006353;28;20054;-44
2022/04/20 09:10:36;;;;;;;2.00;1.02;;;23.50;36.90;;;;;;5005921;28;20033;-46
2022/04/20 09:13:07;;;;;;;2.30;1.20;;;23.50;37.00;;;;;;5006147;28;20033;-44
2022/04/20 09:15:35;;;;;;;2.45;1.10;;;23.50;37.00;;;;;;5005472;28;20632;-44
2022/04/20 09:18:03;;;;;;;2.03;1.10;;;23.50;37.00;;;;;;5006335;28;20104;-45
2022/04/20 09:20:31;;;;;;;2.60;1.38;;;23.50;37.00;;;;;;5005366;28;20068;-45
2022/04/20 09:23:03;;;;;;;3.50;1.35;;;23.50;37.10;;;;;;5006350;28;20088;-45
2022/04/20 09:25:36;;;;;;;2.63;1.10;;;23.50;37.10;;;;;;5005726;28;20026;-44
2022/04/20 09:28:09;;;;;;;2.88;1.30;;;23.50;37.10;;;;;;5005832;28;20054;-43
2022/04/20 09:30:40;;;;;;;2.28;1.30;;;23.50;37.10;;;;;;5005263;28;20509;-46
2022/04/20 09:33:07;;;;;;;2.60;1.58;;;23.50;37.00;;;;;;5006079;28;20382;-45
2022/04/20 09:35:46;;;;;;;2.22;1.17;;;23.50;37.00;;;;;;5003568;28;20026;-45
2022/04/20 09:38:13;;;;;;;1.90;1.13;;;23.50;37.00;;;;;;4986069;28;20097;-44
2022/04/20 09:40:39;;;;;;;2.97;1.48;;;23.50;37.00;;;;;;4985599;28;20738;-45
2022/04/20 09:43:16;;;;;;;2.28;1.17;;;23.50;37.00;;;;;;4986325;28;20049;-45
2022/04/20 09:45:43;;;;;;;2.88;1.30;;;23.50;37.70;;;;;;4992376;28;20033;-44
2022/04/20 09:51:20;;;;;;;2.50;1.17;;;23.60;37.10;;;;;;5005274;28;20248;-45
2022/04/20 09:53:50;;;;;;;1.90;1.10;;;23.60;37.10;;;;;;5005616;28;20037;-45
2022/04/20 09:56:27;;;;;;;1.98;1.00;;;23.60;37.00;;;;;;5005348;28;20029;-45
2022/04/20 09:59:04;;;;;;;2.58;1.10;;;23.60;37.10;;;;;;5005723;28;20083;-43
2022/04/20 10:01:34;;;;;;;2.45;1.20;;;23.60;37.00;;;;;;5004442;28;20026;-45
2022/04/20 10:04:02;;;;;;;1.95;1.05;;;23.60;37.00;;;;;;5005527;28;20452;-45
2022/04/20 10:06:28;;;;;;;2.55;1.50;;;23.70;37.10;;;;;;5004730;28;20048;-47
2022/04/20 10:08:54;;;;;;;2.53;1.50;;;23.60;36.90;;;;;;5005366;28;20065;-44
2022/04/20 10:11:22;;;;;;;2.80;1.00;;;23.70;37.00;;;;;;4987336;28;20022;-44
2022/04/20 10:16:05;;;;;;;2.50;1.38;;;23.70;37.00;;;;;;5005558;28;20046;-44
2022/04/20 10:16:41;;;;;;;2.28;1.35;;;23.60;37.00;;;;;;5004753;28;20037;-45
2022/04/20 10:19:08;;;;;;;2.85;1.40;;;23.60;36.90;;;;;;5004917;28;20034;-45
2022/04/20 10:21:44;;;;;;;2.83;1.30;;;23.60;37.00;;;;;;5004662;28;20026;-45
2022/04/20 10:24:14;;;;;;;2.63;1.10;;;23.70;37.10;;;;;;5004596;28;20041;-45
2022/04/20 10:26:40;;;;;;;3.20;1.52;;;23.70;37.10;;;;;;5004776;28;20587;-43
2022/04/20 10:29:35;;;;;;;2.42;1.42;;;23.60;37.00;;;;;;5005439;28;20026;-46
2022/04/20 10:32:09;;;;;;;2.53;1.27;;;23.70;37.40;;;;;;4982657;28;20030;-43
2022/04/20 10:34:36;;;;;;;2.90;1.50;;;23.60;37.10;;;;;;4987191;28;20030;-44
2022/04/20 10:37:04;;;;;;;1.90;1.08;;;23.70;37.10;;;;;;4998822;28;20434;-46
2022/04/20 10:39:40;;;;;;;2.38;1.10;;;23.60;37.00;;;;;;4985513;28;20505;-43
2022/04/20 10:42:11;;;;;;;2.58;1.40;;;23.70;37.20;;;;;;4984966;28;20097;-45
2022/04/20 10:44:55;;;;;;;2.22;1.10;;;23.70;37.10;;;;;;4985458;28;20088;-44
2022/04/20 10:47:28;;;;;;;2.90;1.48;;;23.70;37.10;;;;;;5003311;28;20041;-44
2022/04/20 10:50:19;;;;;;;2.88;1.20;;;23.70;37.00;;;;;;5004582;28;20026;-44
2022/04/20 10:53:03;;;;;;;3.05;1.63;;;23.70;37.00;;;;;;5004034;28;20029;-44
2022/04/20 10:55:32;;;;;;;2.30;1.23;;;23.70;36.90;;;;;;5004539;28;20037;-46
2022/04/20 10:58:03;;;;;;;1.98;1.10;;;23.70;37.00;;;;;;4986610;28;20045;-45
2022/04/20 11:00:36;;;;;;;2.38;1.10;;;23.70;37.00;;;;;;5004064;28;20105;-46
2022/04/20 11:03:06;;;;;;;;;;;23.70;37.00;;;;;;5005006;28;20429;-45
2022/04/20 11:05:48;;;;;;;2.22;1.13;;;23.70;37.00;;;;;;5004336;28;19951;-44
2022/04/20 11:08:17;;;;;;;2.35;1.20;;;23.70;37.00;;;;;;5008341;28;20030;-45
2022/04/20 11:18:38;;;;;;;3.05;1.70;;;23.70;37.00;;;;;;5007744;28;20045;-45
2022/04/20 11:19:48;;;;;;;2.67;1.48;;;23.80;37.10;;;;;;5008243;28;20121;-45
2022/04/20 11:22:14;;;;;;;3.00;1.35;;;23.80;37.00;;;;;;5008225;28;20072;-45
2022/04/20 11:24:40;;;;;;;2.13;1.27;;;23.70;37.00;;;;;;5008245;28;20040;-44
2022/04/20 11:27:06;;;;;;;2.50;1.48;;;23.80;37.00;;;;;;5008264;28;20517;-45
2022/04/20 11:29:33;;;;;;;3.78;1.50;;;23.80;37.00;;;;;;4990251;28;20060;-45
2022/04/20 11:32:09;;;;;;;2.45;1.30;;;23.80;36.90;;;;;;5007600;28;20088;-43
2022/04/20 11:34:36;;;;;;;2.78;1.45;;;23.80;36.90;;;;;;4990563;28;20026;-46
2022/04/20 11:37:06;;;;;;;2.28;1.17;;;23.80;36.90;;;;;;5005591;28;20030;-46
2022/04/20 11:39:33;;;;;;;2.00;1.20;;;23.80;36.80;;;;;;5005767;28;20030;-45
2022/04/20 11:42:02;;;;;;;2.40;1.15;;;23.80;36.80;;;;;;4989250;28;20033;-45
2022/04/20 11:44:35;;;;;;;2.70;1.30;;;23.80;36.80;;;;;;5007197;28;20030;-44
2022/04/20 11:47:08;;;;;;;2.28;1.30;;;23.80;36.80;;;;;;4989890;28;20412;-45
2022/04/20 11:49:36;;;;;;;2.40;1.00;;;23.80;36.90;;;;;;5007045;28;20121;-46
2022/04/20 11:52:06;;;;;;;2.22;1.25;;;23.80;36.80;;;;;;5006989;28;20038;-45
2022/04/20 11:54:34;;;;;;;1.85;1.10;;;23.90;37.00;;;;;;5006728;28;20030;-46
2022/04/20 11:57:00;;;;;;;3.35;1.20;;;23.90;37.00;;;;;;5007713;28;20038;-45
2022/04/20 11:59:27;;;;;;;2.72;1.52;;;23.90;37.00;;;;;;5007302;28;20029;-44
2022/04/20 12:01:54;;;;;;;2.83;1.35;;;23.90;37.10;;;;;;4989186;28;20125;-46
2022/04/20 12:04:25;;;;;;;3.28;1.45;;;23.90;37.00;;;;;;5007234;28;20045;-46
2022/04/20 12:06:56;;;;;;;2.47;1.20;;;24.00;36.90;;;;;;5007511;28;20120;-46
2022/04/20 12:09:24;;;;;;;2.50;1.33;;;24.00;37.00;;;;;;5007416;28;20026;-44
2022/04/20 12:11:58;;;;;;;1.88;1.02;;;24.00;37.00;;;;;;5007024;28;20032;-45
2022/04/20 12:14:32;;;;;;;2.40;1.10;;;24.00;36.90;;;;;;5006936;28;20122;-46
2022/04/20 12:17:00;;;;;;;2.28;1.35;;;24.00;36.90;;;;;;5006940;28;20042;-44
2022/04/20 12:19:30;;;;;;;2.22;1.10;;;24.00;37.70;;;;;;5005909;28;20072;-45
2022/04/20 12:22:04;;;;;;;1.77;1.10;;;24.00;36.90;;;;;;5006860;28;20026;-44
2022/04/20 12:24:30;;;;;;;2.70;1.30;;;24.00;36.90;;;;;;4989012;28;20021;-45
2022/04/20 12:26:57;;;;;;;2.47;1.48;;;24.10;37.00;;;;;;5007121;28;20049;-46
2022/04/20 12:29:29;;;;;;;2.35;1.48;;;24.00;37.10;;;;;;5006728;28;20557;-46
2022/04/20 12:31:55;;;;;;;2.92;1.38;;;24.00;36.80;;;;;;5006698;28;20037;-45
2022/04/20 12:34:24;;;;;;;2.50;1.10;;;24.00;36.80;;;;;;5006817;28;20353;-46
2022/04/20 12:36:59;;;;;;;2.45;1.30;;;24.10;36.90;;;;;;5007231;28;20180;-45
2022/04/20 12:39:39;;;;;;;2.17;1.10;;;24.10;36.70;;;;;;4983159;28;20026;-46
2022/04/20 12:42:05;;;;;;;2.08;1.20;;;24.10;36.60;;;;;;5006750;28;20041;-45
2022/04/20 12:44:35;;;;;;;2.58;1.10;;;24.10;36.60;;;;;;5006905;28;20026;-44
2022/04/20 12:47:19;;;;;;;2.65;1.33;;;24.10;36.50;;;;;;5006345;28;20041;-45
2022/04/20 12:49:50;;;;;;;2.50;1.13;;;24.20;36.50;;;;;;5006588;28;20069;-50
2022/04/20 12:52:19;;;;;;;2.50;1.42;;;24.20;36.40;;;;;;5006476;28;20331;-45
2022/04/20 12:55:08;;;;;;;1.80;1.00;;;24.20;36.30;;;;;;5006231;28;20037;-44
2022/04/20 13:03:16;;;;;;;2.80;1.25;;;24.20;36.30;;;;;;5006487;28;20410;-45
2022/04/20 13:05:43;;;;;;;1.70;1.00;;;24.20;36.20;;;;;;5006336;28;20029;-46
2022/04/20 13:08:10;;;;;;;2.22;1.30;;;24.30;36.30;;;;;;5006428;28;20053;-45
2022/04/20 13:10:41;;;;;;;2.53;1.35;;;24.20;36.30;;;;;;5006488;28;20045;-46
2022/04/20 13:13:07;;;;;;;2.50;1.10;;;24.20;36.40;;;;;;5006175;28;20075;-45
2022/04/20 13:15:34;;;;;;;2.30;1.30;;;24.20;36.20;;;;;;5005751;28;20464;-45
2022/04/20 13:18:00;;;;;;;2.15;1.13;;;24.20;36.40;;;;;;5006046;28;20033;-45
2022/04/20 13:20:28;;;;;;;1.70;1.00;;;24.20;36.20;;;;;;5005587;28;20026;-45
2022/04/20 13:22:54;;;;;;;2.50;1.35;;;24.30;36.30;;;;;;5006027;28;20033;-46
2022/04/20 13:28:05;;;;;;;2.28;1.30;;;24.30;36.10;;;;;;5006159;28;20192;-45